createdAt,value
2018-03-18T00:00:36.580Z,1015.16
2018-03-18T00:01:36.541Z,1015.01
2018-03-18T00:02:36.501Z,1015.06
2018-03-18T00:03:36.464Z,1015.12
2018-03-18T00:04:36.429Z,1015.08
2018-03-18T00:05:36.394Z,1015.09
2018-03-18T00:06:36.359Z,1015.00
2018-03-18T00:07:36.324Z,1015.11
2018-03-18T00:08:36.285Z,1015.10
2018-03-18T00:09:36.247Z,1015.07
2018-03-18T00:10:36.215Z,1015.03
2018-03-18T00:11:36.181Z,1015.21
2018-03-18T00:12:36.146Z,1015.07
2018-03-18T00:13:36.104Z,1015.17
2018-03-18T00:14:36.072Z,1015.19
2018-03-18T00:15:36.039Z,1015.25
2018-03-18T00:16:35.996Z,1015.23
2018-03-18T00:17:35.963Z,1015.25
2018-03-18T00:18:35.931Z,1015.25
2018-03-18T00:19:35.910Z,1015.03
2018-03-18T00:20:35.855Z,1015.02
2018-03-18T00:21:35.816Z,1015.08
2018-03-18T00:22:35.776Z,1015.02
2018-03-18T00:23:35.752Z,1015.28
2018-03-18T00:24:35.711Z,1015.19
2018-03-18T00:25:35.666Z,1015.30
2018-03-18T00:26:35.635Z,1015.27
2018-03-18T00:27:35.595Z,1015.22
2018-03-18T00:28:35.563Z,1015.29
2018-03-18T00:29:35.523Z,1015.24
2018-03-18T00:30:35.490Z,1015.14
2018-03-18T00:31:35.455Z,1015.19
2018-03-18T00:32:35.412Z,1015.25
2018-03-18T00:33:35.382Z,1015.07
2018-03-18T00:34:35.344Z,1015.32
2018-03-18T00:35:35.311Z,1015.18
2018-03-18T00:36:35.275Z,1015.28
2018-03-18T00:37:35.242Z,1015.26
2018-03-18T00:38:35.199Z,1015.13
2018-03-18T00:39:35.159Z,1015.28
2018-03-18T00:40:35.121Z,1015.21
2018-03-18T00:41:35.087Z,1015.29
2018-03-18T00:42:35.049Z,1015.19
2018-03-18T00:43:35.016Z,1015.35
2018-03-18T00:44:34.976Z,1015.33
2018-03-18T00:45:34.947Z,1015.21
2018-03-18T00:46:34.909Z,1015.29
2018-03-18T00:47:34.877Z,1015.33
2018-03-18T00:48:34.839Z,1015.31
2018-03-18T00:49:34.801Z,1015.25
2018-03-18T00:50:34.755Z,1015.17
2018-03-18T00:51:34.718Z,1015.32
2018-03-18T00:52:34.686Z,1015.28
2018-03-18T00:53:34.651Z,1015.19
2018-03-18T00:54:34.608Z,1015.25
2018-03-18T00:55:34.574Z,1015.27
2018-03-18T00:56:34.538Z,1015.27
2018-03-18T00:57:34.506Z,1015.37
2018-03-18T00:58:34.467Z,1015.24
2018-03-18T00:59:34.428Z,1015.29
2018-03-18T01:00:34.398Z,1015.29
2018-03-18T01:01:34.353Z,1014.99
2018-03-18T01:02:34.321Z,1015.30
2018-03-18T01:03:34.284Z,1015.12
2018-03-18T01:04:34.247Z,1015.22
2018-03-18T01:05:34.206Z,1015.23
2018-03-18T01:06:34.175Z,1015.22
2018-03-18T01:07:34.140Z,1015.22
2018-03-18T01:08:34.105Z,1015.23
2018-03-18T01:09:34.060Z,1015.16
2018-03-18T01:10:34.026Z,1015.32
2018-03-18T01:11:33.993Z,1015.18
2018-03-18T01:12:33.953Z,1015.25
2018-03-18T01:13:33.914Z,1015.27
2018-03-18T01:14:33.879Z,1015.24
2018-03-18T01:15:33.852Z,1015.11
2018-03-18T01:16:33.807Z,1015.23
2018-03-18T01:17:33.769Z,1015.26
2018-03-18T01:18:33.735Z,1015.02
2018-03-18T01:19:33.705Z,1015.22
2018-03-18T01:20:33.661Z,1015.28
2018-03-18T01:21:33.625Z,1015.32
2018-03-18T01:22:33.589Z,1015.14
2018-03-18T01:23:33.548Z,1015.19
2018-03-18T01:24:33.518Z,1015.28
2018-03-18T01:25:33.481Z,1015.27
2018-03-18T01:26:33.441Z,1015.22
2018-03-18T01:27:33.409Z,1015.30
2018-03-18T01:28:33.366Z,1015.17
2018-03-18T01:29:33.331Z,1015.44
2018-03-18T01:30:33.290Z,1015.26
2018-03-18T01:31:33.263Z,1015.32
2018-03-18T01:32:33.219Z,1015.27
2018-03-18T01:33:33.188Z,1015.31
2018-03-18T01:34:33.147Z,1015.23
2018-03-18T01:35:33.114Z,1015.31
2018-03-18T01:36:33.072Z,1015.28
2018-03-18T01:37:33.035Z,1015.16
2018-03-18T01:38:33.000Z,1015.19
2018-03-18T01:39:32.961Z,1015.26
2018-03-18T01:40:32.930Z,1015.37
2018-03-18T01:41:32.888Z,1015.39
2018-03-18T01:42:32.862Z,1015.21
2018-03-18T01:43:32.819Z,1015.31
2018-03-18T01:44:32.781Z,1015.24
2018-03-18T01:45:32.740Z,1015.31
2018-03-18T01:46:32.707Z,1015.33
2018-03-18T01:47:32.670Z,1015.24
2018-03-18T01:48:32.633Z,1015.23
2018-03-18T01:49:32.598Z,1015.14
2018-03-18T01:50:32.559Z,1015.25
2018-03-18T01:51:32.523Z,1015.28
2018-03-18T01:52:32.488Z,1015.27
2018-03-18T01:53:32.449Z,1015.21
2018-03-18T01:54:32.418Z,1015.22
2018-03-18T01:55:32.376Z,1015.36
2018-03-18T01:56:32.342Z,1015.27
2018-03-18T01:57:32.300Z,1015.25
2018-03-18T01:58:32.263Z,1015.37
2018-03-18T01:59:32.227Z,1015.05
2018-03-18T02:00:32.215Z,1015.22
2018-03-18T02:01:32.162Z,1015.32
2018-03-18T02:02:32.127Z,1015.31
2018-03-18T02:03:32.080Z,1015.03
2018-03-18T02:04:32.045Z,1015.30
2018-03-18T02:05:32.005Z,1015.33
2018-03-18T02:06:31.974Z,1015.20
2018-03-18T02:07:31.938Z,1015.19
2018-03-18T02:08:31.900Z,1014.97
2018-03-18T02:09:31.861Z,1015.13
2018-03-18T02:10:31.830Z,1015.20
2018-03-18T02:11:31.788Z,1015.17
2018-03-18T02:12:31.751Z,1015.32
2018-03-18T02:13:31.713Z,1015.27
2018-03-18T02:14:31.676Z,1015.27
2018-03-18T02:15:31.637Z,1015.12
2018-03-18T02:16:31.603Z,1015.25
2018-03-18T02:17:31.574Z,1015.22
2018-03-18T02:18:31.532Z,1015.17
2018-03-18T02:19:31.491Z,1015.16
2018-03-18T02:20:31.458Z,1015.15
2018-03-18T02:21:31.426Z,1015.14
2018-03-18T02:22:31.385Z,1015.20
2018-03-18T02:23:31.343Z,1015.16
2018-03-18T02:24:31.308Z,1015.21
2018-03-18T02:25:31.271Z,1015.14
2018-03-18T02:26:31.235Z,1015.17
2018-03-18T02:27:31.196Z,1015.19
2018-03-18T02:28:31.165Z,1015.27
2018-03-18T02:29:31.122Z,1015.12
2018-03-18T02:30:31.089Z,1015.18
2018-03-18T02:31:31.052Z,1015.21
2018-03-18T02:32:31.018Z,1015.19
2018-03-18T02:33:30.980Z,1015.07
2018-03-18T02:34:30.946Z,1015.21
2018-03-18T02:35:30.905Z,1015.08
2018-03-18T02:36:30.879Z,1015.13
2018-03-18T02:37:30.836Z,1015.17
2018-03-18T02:38:30.790Z,1015.19
2018-03-18T02:39:30.755Z,1015.06
2018-03-18T02:40:30.724Z,1015.15
2018-03-18T02:41:30.681Z,1015.16
2018-03-18T02:42:30.648Z,1015.14
2018-03-18T02:43:30.611Z,1015.11
2018-03-18T02:44:30.579Z,1015.11
2018-03-18T02:45:30.533Z,1015.15
2018-03-18T02:46:30.506Z,1015.16
2018-03-18T02:47:30.471Z,1015.08
2018-03-18T02:48:30.429Z,1015.13
2018-03-18T02:49:30.385Z,1015.18
2018-03-18T02:50:30.348Z,1015.05
2018-03-18T02:51:30.315Z,1015.07
2018-03-18T02:52:30.279Z,1015.07
2018-03-18T02:53:30.236Z,1014.98
2018-03-18T02:54:30.207Z,1015.05
2018-03-18T02:55:30.168Z,1015.10
2018-03-18T02:56:30.131Z,1015.06
2018-03-18T02:57:30.095Z,1015.11
2018-03-18T02:58:30.056Z,1015.11
2018-03-18T02:59:30.024Z,1015.10
2018-03-18T03:00:29.980Z,1015.02
2018-03-18T03:01:29.941Z,1015.06
2018-03-18T03:02:29.911Z,1015.15
2018-03-18T03:03:29.868Z,1015.11
2018-03-18T03:04:29.880Z,1015.19
2018-03-18T03:05:29.800Z,1015.04
2018-03-18T03:06:29.760Z,1015.07
2018-03-18T03:07:29.733Z,1015.09
2018-03-18T03:08:29.690Z,1015.13
2018-03-18T03:09:29.649Z,1015.01
2018-03-18T03:10:29.617Z,1015.17
2018-03-18T03:11:29.572Z,1015.04
2018-03-18T03:12:29.537Z,1014.89
2018-03-18T03:13:29.505Z,1015.12
2018-03-18T03:14:29.467Z,1015.05
2018-03-18T03:15:29.427Z,1015.03
2018-03-18T03:16:29.433Z,1015.02
2018-03-18T03:17:29.355Z,1014.99
2018-03-18T03:18:29.319Z,1015.10
2018-03-18T03:19:29.288Z,1014.93
2018-03-18T03:20:29.247Z,1015.06
2018-03-18T03:21:29.209Z,1014.99
2018-03-18T03:22:29.173Z,1015.10
2018-03-18T03:23:29.132Z,1015.02
2018-03-18T03:24:29.095Z,1014.93
2018-03-18T03:25:29.062Z,1015.05
2018-03-18T03:26:29.017Z,1015.06
2018-03-18T03:27:28.983Z,1015.01
2018-03-18T03:28:28.948Z,1014.98
2018-03-18T03:29:28.913Z,1015.04
2018-03-18T03:30:28.885Z,1015.04
2018-03-18T03:31:28.839Z,1015.03
2018-03-18T03:32:28.801Z,1015.00
2018-03-18T03:33:28.758Z,1014.95
2018-03-18T03:34:28.727Z,1015.06
2018-03-18T03:35:28.687Z,1015.08
2018-03-18T03:36:28.646Z,1014.98
2018-03-18T03:37:28.615Z,1015.04
2018-03-18T03:38:28.575Z,1015.06
2018-03-18T03:39:28.537Z,1015.02
2018-03-18T03:40:28.504Z,1015.09
2018-03-18T03:41:28.464Z,1015.10
2018-03-18T03:42:28.431Z,1015.04
2018-03-18T03:43:28.393Z,1015.07
2018-03-18T03:44:28.352Z,1015.04
2018-03-18T03:45:28.323Z,1015.14
2018-03-18T03:46:28.293Z,1015.10
2018-03-18T03:47:28.240Z,1015.05
2018-03-18T03:48:28.207Z,1015.08
2018-03-18T03:49:28.169Z,1015.11
2018-03-18T03:50:28.128Z,1015.09
2018-03-18T03:51:28.092Z,1015.17
2018-03-18T03:52:28.062Z,1015.25
2018-03-18T03:53:28.018Z,1015.12
2018-03-18T03:54:28.014Z,1014.99
2018-03-18T03:55:27.950Z,1015.30
2018-03-18T03:56:27.966Z,1015.20
2018-03-18T03:57:27.869Z,1015.15
2018-03-18T03:58:27.836Z,1015.21
2018-03-18T03:59:27.801Z,1015.17
2018-03-18T04:00:27.765Z,1015.18
2018-03-18T04:01:27.737Z,1015.05
2018-03-18T04:02:27.683Z,1015.18
2018-03-18T04:03:27.645Z,1015.09
2018-03-18T04:04:27.609Z,1015.09
2018-03-18T04:05:27.578Z,1015.03
2018-03-18T04:06:27.535Z,1015.28
2018-03-18T04:07:27.498Z,1015.21
2018-03-18T04:08:27.461Z,1015.19
2018-03-18T04:09:27.429Z,1015.29
2018-03-18T04:10:27.393Z,1015.30
2018-03-18T04:11:27.351Z,1015.30
2018-03-18T04:12:27.322Z,1015.11
2018-03-18T04:13:27.278Z,1015.17
2018-03-18T04:14:27.242Z,1015.30
2018-03-18T04:15:27.204Z,1015.27
2018-03-18T04:16:27.165Z,1015.35
2018-03-18T04:17:27.136Z,1015.37
2018-03-18T04:18:27.093Z,1015.29
2018-03-18T04:19:27.056Z,1015.34
2018-03-18T04:20:27.019Z,1015.36
2018-03-18T04:21:26.985Z,1015.32
2018-03-18T04:22:26.940Z,1015.31
2018-03-18T04:23:26.910Z,1015.21
2018-03-18T04:24:26.877Z,1015.33
2018-03-18T04:25:26.830Z,1015.28
2018-03-18T04:26:26.795Z,1015.35
2018-03-18T04:27:26.756Z,1015.39
2018-03-18T04:28:26.723Z,1015.39
2018-03-18T04:29:26.686Z,1015.40
2018-03-18T04:30:26.649Z,1015.39
2018-03-18T04:31:26.609Z,1015.32
2018-03-18T04:32:26.581Z,1015.47
2018-03-18T04:33:26.537Z,1015.37
2018-03-18T04:34:26.506Z,1015.39
2018-03-18T04:35:26.461Z,1015.35
2018-03-18T04:36:26.438Z,1015.34
2018-03-18T04:37:26.388Z,1015.33
2018-03-18T04:38:26.352Z,1015.34
2018-03-18T04:39:26.311Z,1015.35
2018-03-18T04:40:26.273Z,1015.43
2018-03-18T04:41:26.240Z,1015.29
2018-03-18T04:42:26.206Z,1015.36
2018-03-18T04:43:26.211Z,1015.36
2018-03-18T04:44:26.130Z,1015.38
2018-03-18T04:45:26.144Z,1015.31
2018-03-18T04:46:26.056Z,1015.46
2018-03-18T04:47:26.266Z,1015.46
2018-03-18T04:48:25.975Z,1015.31
2018-03-18T04:49:25.941Z,1015.35
2018-03-18T04:50:25.903Z,1015.39
2018-03-18T04:51:25.867Z,1015.42
2018-03-18T04:52:25.833Z,1015.38
2018-03-18T04:53:25.804Z,1015.49
2018-03-18T04:54:25.757Z,1015.45
2018-03-18T04:55:25.716Z,1015.49
2018-03-18T04:56:25.681Z,1015.29
2018-03-18T04:57:25.647Z,1015.35
2018-03-18T04:58:25.607Z,1015.40
2018-03-18T04:59:25.565Z,1015.38
2018-03-18T05:00:25.528Z,1015.44
2018-03-18T05:01:25.502Z,1015.46
2018-03-18T05:02:25.457Z,1015.49
2018-03-18T05:03:25.424Z,1015.47
2018-03-18T05:04:25.388Z,1015.40
2018-03-18T05:05:25.351Z,1015.35
2018-03-18T05:06:25.317Z,1015.50
2018-03-18T05:07:25.277Z,1015.44
2018-03-18T05:08:25.238Z,1015.47
2018-03-18T05:09:25.200Z,1015.45
2018-03-18T05:10:25.167Z,1015.48
2018-03-18T05:11:25.127Z,1015.30
2018-03-18T05:12:25.081Z,1015.32
2018-03-18T05:13:25.047Z,1015.29
2018-03-18T05:14:25.005Z,1015.48
2018-03-18T05:15:24.970Z,1015.45
2018-03-18T05:16:24.933Z,1015.45
2018-03-18T05:17:24.907Z,1015.60
2018-03-18T05:18:24.869Z,1015.56
2018-03-18T05:19:24.835Z,1015.49
2018-03-18T05:20:24.795Z,1015.63
2018-03-18T05:21:24.744Z,1015.58
2018-03-18T05:22:24.713Z,1015.55
2018-03-18T05:23:24.670Z,1015.58
2018-03-18T05:24:24.642Z,1015.62
2018-03-18T05:25:24.594Z,1015.71
2018-03-18T05:26:24.565Z,1015.72
2018-03-18T05:27:24.532Z,1015.57
2018-03-18T05:28:24.488Z,1015.58
2018-03-18T05:29:24.448Z,1015.76
2018-03-18T05:30:24.410Z,1015.61
2018-03-18T05:31:24.384Z,1015.71
2018-03-18T05:32:24.338Z,1015.71
2018-03-18T05:33:24.304Z,1015.64
2018-03-18T05:34:24.260Z,1015.64
2018-03-18T05:35:24.225Z,1015.79
2018-03-18T05:36:24.186Z,1015.76
2018-03-18T05:37:24.150Z,1015.69
2018-03-18T05:38:24.115Z,1015.67
2018-03-18T05:39:24.074Z,1015.64
2018-03-18T05:40:24.038Z,1015.65
2018-03-18T05:41:24.002Z,1015.76
2018-03-18T05:42:23.965Z,1015.78
2018-03-18T05:43:23.928Z,1015.85
2018-03-18T05:44:23.896Z,1015.84
2018-03-18T05:45:23.865Z,1015.85
2018-03-18T05:46:23.817Z,1015.89
2018-03-18T05:47:23.775Z,1015.92
2018-03-18T05:48:23.738Z,1015.94
2018-03-18T05:49:23.710Z,1015.96
2018-03-18T05:50:23.672Z,1015.78
2018-03-18T05:51:23.633Z,1015.97
2018-03-18T05:52:23.594Z,1015.97
2018-03-18T05:53:23.558Z,1015.84
2018-03-18T05:54:23.517Z,1016.12
2018-03-18T05:55:23.481Z,1016.08
2018-03-18T05:56:23.465Z,1016.20
2018-03-18T05:57:23.406Z,1016.17
2018-03-18T05:58:23.372Z,1016.14
2018-03-18T05:59:23.338Z,1016.21
2018-03-18T06:00:23.310Z,1016.22
2018-03-18T06:01:23.264Z,1016.30
2018-03-18T06:02:23.227Z,1016.27
2018-03-18T06:03:23.193Z,1016.37
2018-03-18T06:04:23.160Z,1016.23
2018-03-18T06:05:23.124Z,1016.46
2018-03-18T06:06:23.092Z,1016.45
2018-03-18T06:07:23.053Z,1016.40
2018-03-18T06:08:23.014Z,1016.50
2018-03-18T06:09:22.978Z,1016.50
2018-03-18T06:10:22.941Z,1016.44
2018-03-18T06:11:22.949Z,1016.47
2018-03-18T06:12:22.869Z,1016.43
2018-03-18T06:13:22.839Z,1016.42
2018-03-18T06:14:22.799Z,1016.47
2018-03-18T06:15:22.760Z,1016.40
2018-03-18T06:16:22.728Z,1016.33
2018-03-18T06:17:22.695Z,1016.28
2018-03-18T06:18:22.655Z,1016.41
2018-03-18T06:19:22.618Z,1016.28
2018-03-18T06:20:22.590Z,1016.33
2018-03-18T06:21:22.555Z,1016.36
2018-03-18T06:22:22.518Z,1016.32
2018-03-18T06:23:22.484Z,1016.42
2018-03-18T06:24:22.447Z,1016.52
2018-03-18T06:25:22.411Z,1016.38
2018-03-18T06:26:22.375Z,1016.55
2018-03-18T06:27:22.343Z,1016.30
2018-03-18T06:28:22.304Z,1016.44
2018-03-18T06:29:22.278Z,1016.45
2018-03-18T06:30:22.234Z,1016.51
2018-03-18T06:31:22.211Z,1016.53
2018-03-18T06:32:22.170Z,1016.65
2018-03-18T06:33:22.131Z,1016.48
2018-03-18T06:34:22.106Z,1016.61
2018-03-18T06:35:22.064Z,1016.59
2018-03-18T06:36:22.036Z,1016.56
2018-03-18T06:37:22.000Z,1016.65
2018-03-18T06:38:21.960Z,1016.58
2018-03-18T06:39:21.929Z,1016.65
2018-03-18T06:40:21.897Z,1016.75
2018-03-18T06:41:21.868Z,1016.88
2018-03-18T06:42:21.833Z,1016.81
2018-03-18T06:43:21.801Z,1017.04
2018-03-18T06:44:21.758Z,1016.99
2018-03-18T06:45:21.722Z,1017.05
2018-03-18T06:46:21.694Z,1017.16
2018-03-18T06:47:21.660Z,1017.16
2018-03-18T06:48:21.626Z,1017.12
2018-03-18T06:49:21.587Z,1017.16
2018-03-18T06:50:21.562Z,1017.14
2018-03-18T06:51:21.526Z,1017.01
2018-03-18T06:52:21.497Z,1017.15
2018-03-18T06:53:21.455Z,1017.06
2018-03-18T06:54:21.421Z,1017.21
2018-03-18T06:55:21.397Z,1017.21
2018-03-18T06:56:21.363Z,1016.95
2018-03-18T06:57:21.337Z,1017.03
2018-03-18T06:58:21.327Z,1017.17
2018-03-18T06:59:21.260Z,1017.20
2018-03-18T07:00:21.224Z,1017.24
2018-03-18T07:01:21.196Z,1017.41
2018-03-18T07:02:21.159Z,1017.37
2018-03-18T07:03:21.127Z,1017.43
2018-03-18T07:04:21.109Z,1017.35
2018-03-18T07:05:21.065Z,1017.40
2018-03-18T07:06:21.035Z,1017.43
2018-03-18T07:07:21.041Z,1017.29
2018-03-18T07:08:20.972Z,1017.56
2018-03-18T07:09:20.937Z,1017.51
2018-03-18T07:10:20.902Z,1017.57
2018-03-18T07:11:20.868Z,1017.54
2018-03-18T07:12:20.837Z,1017.59
2018-03-18T07:13:20.807Z,1017.44
2018-03-18T07:14:20.777Z,1017.50
2018-03-18T07:15:20.743Z,1017.40
2018-03-18T07:16:20.708Z,1017.37
2018-03-18T07:17:20.685Z,1017.43
2018-03-18T07:18:20.643Z,1017.51
2018-03-18T07:19:20.619Z,1017.57
2018-03-18T07:20:20.584Z,1017.56
2018-03-18T07:21:20.554Z,1017.48
2018-03-18T07:22:20.522Z,1017.41
2018-03-18T07:23:20.489Z,1017.39
2018-03-18T07:24:20.455Z,1017.52
2018-03-18T07:25:20.426Z,1017.55
2018-03-18T07:26:20.393Z,1017.48
2018-03-18T07:27:20.364Z,1017.62
2018-03-18T07:28:20.330Z,1017.61
2018-03-18T07:29:20.298Z,1017.81
2018-03-18T07:30:20.276Z,1017.68
2018-03-18T07:31:20.248Z,1017.62
2018-03-18T07:32:20.208Z,1017.82
2018-03-18T07:33:20.175Z,1017.80
2018-03-18T07:34:20.144Z,1017.82
2018-03-18T07:35:20.112Z,1017.85
2018-03-18T07:36:20.085Z,1017.90
2018-03-18T07:37:20.049Z,1018.10
2018-03-18T07:38:20.021Z,1018.07
2018-03-18T07:39:20.055Z,1017.64
2018-03-18T07:40:19.961Z,1018.07
2018-03-18T07:41:19.939Z,1018.28
2018-03-18T07:42:19.903Z,1018.05
2018-03-18T07:43:19.866Z,1018.11
2018-03-18T07:44:19.838Z,1018.14
2018-03-18T07:45:19.808Z,1018.20
2018-03-18T07:46:19.781Z,1018.11
2018-03-18T07:47:19.751Z,1018.07
2018-03-18T07:48:19.716Z,1018.14
2018-03-18T07:49:19.684Z,1018.16
2018-03-18T07:50:19.657Z,1018.10
2018-03-18T07:51:19.621Z,1018.20
2018-03-18T07:52:19.604Z,1018.32
2018-03-18T07:53:19.570Z,1018.31
2018-03-18T07:54:19.532Z,1018.31
2018-03-18T07:55:19.503Z,1018.24
2018-03-18T07:56:19.531Z,1018.35
2018-03-18T07:57:19.456Z,1018.38
2018-03-18T07:58:19.410Z,1018.38
2018-03-18T07:59:19.387Z,1018.45
2018-03-18T08:00:19.357Z,1018.43
2018-03-18T08:01:19.322Z,1018.28
2018-03-18T08:02:19.292Z,1018.42
2018-03-18T08:03:19.268Z,1018.32
2018-03-18T08:04:19.232Z,1018.46
2018-03-18T08:05:19.206Z,1018.48
2018-03-18T08:06:19.178Z,1018.52
2018-03-18T08:07:19.151Z,1018.49
2018-03-18T08:08:19.169Z,1018.56
2018-03-18T08:09:19.083Z,1018.48
2018-03-18T08:10:19.056Z,1018.58
2018-03-18T08:11:19.025Z,1018.47
2018-03-18T08:12:19.000Z,1018.54
2018-03-18T08:13:18.975Z,1018.54
2018-03-18T08:14:18.941Z,1018.67
2018-03-18T08:15:18.912Z,1018.64
2018-03-18T08:16:18.888Z,1018.60
2018-03-18T08:17:18.857Z,1018.67
2018-03-18T08:18:18.826Z,1018.66
2018-03-18T08:19:18.795Z,1018.80
2018-03-18T08:20:18.768Z,1018.75
2018-03-18T08:21:18.735Z,1018.72
2018-03-18T08:22:18.710Z,1018.72
2018-03-18T08:23:18.682Z,1018.76
2018-03-18T08:24:18.650Z,1018.90
2018-03-18T08:25:18.623Z,1018.91
2018-03-18T08:26:18.626Z,1018.86
2018-03-18T08:27:18.569Z,1018.94
2018-03-18T08:28:18.538Z,1019.02
2018-03-18T08:29:18.520Z,1019.01
2018-03-18T08:30:18.483Z,1019.11
2018-03-18T08:31:18.454Z,1019.06
2018-03-18T08:32:18.428Z,1019.13
2018-03-18T08:33:18.396Z,1019.29
2018-03-18T08:34:18.378Z,1019.22
2018-03-18T08:35:18.339Z,1019.24
2018-03-18T08:36:18.345Z,1019.15
2018-03-18T08:37:18.288Z,1019.32
2018-03-18T08:38:18.254Z,1019.35
2018-03-18T08:39:18.226Z,1019.34
2018-03-18T08:40:18.206Z,1019.53
2018-03-18T08:41:18.170Z,1019.30
2018-03-18T08:42:18.141Z,1019.25
2018-03-18T08:43:18.120Z,1019.20
2018-03-18T08:44:18.091Z,1019.24
2018-03-18T08:45:18.064Z,1019.34
2018-03-18T08:46:18.036Z,1019.34
2018-03-18T08:47:18.006Z,1019.38
2018-03-18T08:48:17.976Z,1019.49
2018-03-18T08:49:17.951Z,1019.56
2018-03-18T08:50:17.920Z,1019.78
2018-03-18T08:51:17.892Z,1019.90
2018-03-18T08:52:17.877Z,1019.88
2018-03-18T08:53:17.846Z,1019.79
2018-03-18T08:54:17.831Z,1019.99
2018-03-18T08:55:17.787Z,1020.44
2018-03-18T08:56:17.761Z,1019.97
2018-03-18T08:57:17.736Z,1019.12
2018-03-18T08:58:17.700Z,1018.55
2018-03-18T08:59:17.671Z,1018.12
2018-03-18T09:00:17.651Z,1017.97
2018-03-18T09:01:17.623Z,1017.86
2018-03-18T09:02:17.591Z,1017.83
2018-03-18T09:03:17.564Z,1017.83
2018-03-18T09:04:17.537Z,1017.62
2018-03-18T09:05:17.521Z,1017.64
2018-03-18T09:06:17.484Z,1017.61
2018-03-18T09:07:17.452Z,1017.53
2018-03-18T09:08:17.432Z,1017.61
2018-03-18T09:09:17.398Z,1017.51
2018-03-18T09:10:17.376Z,1017.49
2018-03-18T09:11:17.343Z,1017.48
2018-03-18T09:12:17.320Z,1017.34
2018-03-18T09:13:17.295Z,1017.25
2018-03-18T09:14:17.265Z,1017.40
2018-03-18T09:15:17.242Z,1017.24
2018-03-18T09:16:17.222Z,1017.19
2018-03-18T09:17:17.182Z,1017.35
2018-03-18T09:18:17.154Z,1017.15
2018-03-18T09:19:17.134Z,1017.33
2018-03-18T09:20:17.100Z,1017.25
2018-03-18T09:21:17.082Z,1017.29
2018-03-18T09:22:17.051Z,1017.13
2018-03-18T09:23:17.020Z,1017.22
2018-03-18T09:24:17.002Z,1017.11
2018-03-18T09:25:16.969Z,1017.01
2018-03-18T09:26:16.948Z,1017.12
2018-03-18T09:27:16.916Z,1017.10
2018-03-18T09:28:16.888Z,1017.15
2018-03-18T09:29:16.863Z,1017.09
2018-03-18T09:30:16.850Z,1017.13
2018-03-18T09:31:16.809Z,1017.15
2018-03-18T09:32:16.784Z,1017.08
2018-03-18T09:33:16.759Z,1017.08
2018-03-18T09:34:16.731Z,1017.04
2018-03-18T09:35:16.697Z,1017.05
2018-03-18T09:36:16.686Z,1017.08
2018-03-18T09:37:16.647Z,1017.02
2018-03-18T09:38:16.621Z,1016.95
2018-03-18T09:39:16.594Z,1016.92
2018-03-18T09:40:16.570Z,1016.97
2018-03-18T09:41:16.541Z,1017.05
2018-03-18T09:42:16.523Z,1017.00
2018-03-18T09:43:16.483Z,1016.97
2018-03-18T09:44:16.466Z,1016.80
2018-03-18T09:45:16.431Z,1017.01
2018-03-18T09:46:16.409Z,1016.98
2018-03-18T09:47:16.380Z,1016.98
2018-03-18T09:48:16.349Z,1017.07
2018-03-18T09:49:16.331Z,1016.80
2018-03-18T09:50:16.318Z,1017.07
2018-03-18T09:51:16.275Z,1017.01
2018-03-18T09:52:16.254Z,1017.10
2018-03-18T09:53:16.221Z,1017.11
2018-03-18T09:54:16.201Z,1017.05
2018-03-18T09:55:16.172Z,1017.00
2018-03-18T09:56:16.150Z,1016.87
2018-03-18T09:57:16.115Z,1016.84
2018-03-18T09:58:16.088Z,1016.99
2018-03-18T09:59:16.058Z,1017.01
2018-03-18T10:00:16.031Z,1017.03
2018-03-18T10:01:16.010Z,1016.76
2018-03-18T10:02:15.989Z,1016.98
2018-03-18T10:03:15.956Z,1016.97
2018-03-18T10:04:15.928Z,1016.95
2018-03-18T10:05:15.902Z,1016.91
2018-03-18T10:06:15.902Z,1016.86
2018-03-18T10:07:15.850Z,1016.98
2018-03-18T10:08:15.885Z,1017.08
2018-03-18T10:09:15.793Z,1016.85
2018-03-18T10:10:15.776Z,1016.98
2018-03-18T10:11:15.753Z,1016.99
2018-03-18T10:12:15.723Z,1016.90
2018-03-18T10:13:15.908Z,1016.89
2018-03-18T10:14:15.862Z,1017.00
2018-03-18T10:15:15.639Z,1016.98
2018-03-18T10:16:15.613Z,1016.99
2018-03-18T10:17:15.583Z,1016.97
2018-03-18T10:18:15.768Z,1016.93
2018-03-18T10:19:15.739Z,1016.89
2018-03-18T10:20:15.601Z,1017.25
2018-03-18T10:21:15.486Z,1016.93
2018-03-18T10:22:15.457Z,1016.97
2018-03-18T10:23:15.431Z,1017.00
2018-03-18T10:24:15.412Z,1016.78
2018-03-18T10:25:15.375Z,1016.96
2018-03-18T10:26:15.353Z,1016.85
2018-03-18T10:27:15.330Z,1016.91
2018-03-18T10:28:15.298Z,1016.86
2018-03-18T10:29:15.270Z,1017.02
2018-03-18T10:30:15.253Z,1016.73
2018-03-18T10:31:15.220Z,1016.90
2018-03-18T10:32:15.200Z,1017.01
2018-03-18T10:33:15.171Z,1016.89
2018-03-18T10:34:15.142Z,1016.96
2018-03-18T10:35:15.124Z,1016.87
2018-03-18T10:36:15.095Z,1016.84
2018-03-18T10:37:15.070Z,1016.87
2018-03-18T10:38:15.043Z,1016.89
2018-03-18T10:39:15.019Z,1016.74
2018-03-18T10:40:15.004Z,1016.82
2018-03-18T10:41:14.963Z,1016.89
2018-03-18T10:42:14.937Z,1016.85
2018-03-18T10:43:14.913Z,1016.83
2018-03-18T10:44:14.888Z,1016.92
2018-03-18T10:45:14.860Z,1016.84
2018-03-18T10:46:14.834Z,1016.89
2018-03-18T10:47:14.829Z,1016.88
2018-03-18T10:48:14.785Z,1016.93
2018-03-18T10:49:14.762Z,1017.01
2018-03-18T10:50:14.731Z,1017.02
2018-03-18T10:51:14.707Z,1016.88
2018-03-18T10:52:14.688Z,1017.11
2018-03-18T10:53:14.656Z,1017.08
2018-03-18T10:54:14.626Z,1016.39
2018-03-18T10:55:14.600Z,1016.66
2018-03-18T10:56:14.588Z,1016.79
2018-03-18T10:57:14.551Z,1016.99
2018-03-18T10:58:14.526Z,1017.01
2018-03-18T10:59:14.806Z,1017.08
2018-03-18T11:00:14.474Z,1017.27
2018-03-18T11:01:14.454Z,1017.10
2018-03-18T11:02:14.426Z,1017.26
2018-03-18T11:03:14.401Z,1017.21
2018-03-18T11:04:14.374Z,1017.29
2018-03-18T11:05:14.346Z,1017.20
2018-03-18T11:06:14.316Z,1017.04
2018-03-18T11:07:14.299Z,1017.45
2018-03-18T11:08:14.267Z,1017.57
2018-03-18T11:09:14.251Z,1017.75
2018-03-18T11:10:14.227Z,1017.74
2018-03-18T11:11:14.197Z,1017.80
2018-03-18T11:12:14.170Z,1017.94
2018-03-18T11:13:14.143Z,1018.09
2018-03-18T11:14:14.120Z,1018.38
2018-03-18T11:15:14.094Z,1018.85
2018-03-18T11:16:14.113Z,1019.34
2018-03-18T11:17:14.048Z,1019.51
2018-03-18T11:18:14.020Z,1019.51
2018-03-18T11:19:14.001Z,1019.82
2018-03-18T11:20:13.968Z,1019.65
2018-03-18T11:21:13.941Z,1019.48
2018-03-18T11:22:13.916Z,1019.63
2018-03-18T11:23:13.899Z,1019.51
2018-03-18T11:24:13.864Z,1019.59
2018-03-18T11:25:13.847Z,1019.21
2018-03-18T11:26:13.820Z,1019.32
2018-03-18T11:27:13.802Z,1019.18
2018-03-18T11:28:13.775Z,1019.12
2018-03-18T11:29:13.745Z,1019.18
2018-03-18T11:30:13.719Z,1019.19
2018-03-18T11:31:13.694Z,1019.03
2018-03-18T11:32:13.676Z,1018.99
2018-03-18T11:33:13.647Z,1019.22
2018-03-18T11:34:13.613Z,1018.91
2018-03-18T11:35:13.591Z,1018.95
2018-03-18T11:36:13.570Z,1019.08
2018-03-18T11:37:13.544Z,1019.21
2018-03-18T11:38:13.512Z,1019.04
2018-03-18T11:39:13.492Z,1019.16
2018-03-18T11:40:13.465Z,1019.10
2018-03-18T11:41:13.437Z,1018.90
2018-03-18T11:42:13.415Z,1019.45
2018-03-18T11:43:13.395Z,1019.53
2018-03-18T11:44:13.365Z,1019.40
2018-03-18T11:45:13.337Z,1019.48
2018-03-18T11:46:13.313Z,1019.61
2018-03-18T11:47:13.291Z,1019.50
2018-03-18T11:48:13.259Z,1019.69
2018-03-18T11:49:13.236Z,1019.54
2018-03-18T11:50:13.213Z,1019.67
2018-03-18T11:51:13.189Z,1019.78
2018-03-18T11:52:13.168Z,1019.91
2018-03-18T11:53:13.142Z,1019.67
2018-03-18T11:54:13.118Z,1019.62
2018-03-18T11:55:13.093Z,1019.84
2018-03-18T11:56:13.068Z,1019.82
2018-03-18T11:57:13.036Z,1019.71
2018-03-18T11:58:13.014Z,1019.57
2018-03-18T11:59:12.989Z,1019.78
2018-03-18T12:00:12.966Z,1019.80
2018-03-18T12:01:12.948Z,1019.87
2018-03-18T12:02:12.927Z,1019.69
2018-03-18T12:03:12.897Z,1019.59
2018-03-18T12:04:12.879Z,1019.51
2018-03-18T12:05:12.857Z,1019.61